Time;durP1;ratioP1;P1;durP2;ratioP2;P2;SDS_P1;SDS_P2;PMS_P1;PMS_P2;Temp;Humidity;BMP_temperature;BMP_pressure;BME280_temperature;BME280_humidity;BME280_pressure;Samples;Min_cycle;Max_cycle;Signal;HPM_P1;HPM_P2
2022/10/09 00:01:04;;;;;;;9.48;4.47;;;;;;;;;;5052816;28;20040;-76
2022/10/09 00:03:29;;;;;;;7.25;4.75;;;;;;;;;;5052665;28;20113;-76
2022/10/09 00:05:54;;;;;;;11.63;4.25;;;;;;;;;;5051478;28;20452;-76
2022/10/09 00:08:20;;;;;;;7.75;3.80;;;;;;;;;;5052693;28;20551;-76
2022/10/09 00:10:45;;;;;;;5.85;3.47;;;;;;;;;;5052612;28;20033;-76
2022/10/09 00:13:11;;;;;;;7.07;3.42;;;;;;;;;;5052654;28;20486;-76
2022/10/09 00:15:41;;;;;;;6.18;3.17;;;;;;;;;;5052661;28;20020;-76
2022/10/09 00:18:07;;;;;;;5.18;3.08;;;;;;;;;;5052616;28;20028;-76
2022/10/09 00:20:40;;;;;;;5.40;3.42;;;;;;;;;;5052534;28;20021;-76
2022/10/09 00:23:05;;;;;;;6.28;3.30;;;;;;;;;;5052536;28;20017;-76
2022/10/09 00:25:31;;;;;;;6.22;3.47;;;;;;;;;;5052500;28;20024;-76
2022/10/09 00:27:57;;;;;;;4.55;3.15;;;;;;;;;;5052494;28;20056;-76
2022/10/09 00:30:23;;;;;;;5.05;3.28;;;;;;;;;;5052424;28;20482;-76
2022/10/09 00:32:48;;;;;;;5.40;3.35;;;;;;;;;;5052767;28;20036;-76
2022/10/09 00:35:13;;;;;;;5.80;3.00;;;;;;;;;;5052710;28;20413;-76
2022/10/09 00:37:38;;;;;;;5.30;3.17;;;;;;;;;;5056142;28;20021;-76
2022/10/09 00:40:04;;;;;;;5.18;3.30;;;;;;;;;;5056341;28;20025;-76
2022/10/09 00:42:30;;;;;;;5.72;3.47;;;;;;;;;;5056408;28;20025;-76
2022/10/09 00:44:58;;;;;;;4.80;3.25;;;;;;;;;;5055958;28;20021;-76
2022/10/09 00:47:37;;;;;;;4.68;3.10;;;;;;;;;;5054815;28;20501;-76
2022/10/09 00:50:04;;;;;;;5.05;3.00;;;;;;;;;;5055954;28;20032;-76
2022/10/09 00:52:31;;;;;;;4.53;3.13;;;;;;;;;;5055988;28;20454;-76
2022/10/09 00:54:58;;;;;;;4.15;3.08;;;;;;;;;;5054628;28;20017;-76
2022/10/09 00:57:24;;;;;;;7.00;2.80;;;;;;;;;;5055783;28;20029;-76
2022/10/09 00:59:50;;;;;;;4.70;3.20;;;;;;;;;;5055809;28;20108;-76
2022/10/09 01:02:15;;;;;;;4.75;2.90;;;;;;;;;;5055643;28;20123;-76
2022/10/09 01:04:40;;;;;;;4.25;3.05;;;;;;;;;;5054516;28;20036;-76
2022/10/09 01:07:20;;;;;;;7.07;3.10;;;;;;;;;;5055655;28;20025;-75
2022/10/09 01:09:55;;;;;;;4.90;3.17;;;;;;;;;;5054393;28;20021;-76
2022/10/09 01:12:51;;;;;;;7.07;3.10;;;;;;;;;;5055554;28;20040;-76
2022/10/09 01:15:26;;;;;;;13.75;3.00;;;;;;;;;;5055536;28;20363;-76
2022/10/09 01:18:31;;;;;;;6.95;2.63;;;;;;;;;;5055783;28;20055;-76
2022/10/09 01:21:05;;;;;;;5.05;2.78;;;;;;;;;;4985069;28;20042;-77
2022/10/09 01:23:33;;;;;;;4.78;2.60;;;;;;;;;;5055550;28;20035;-76
2022/10/09 01:26:32;;;;;;;5.75;3.10;;;;;;;;;;5054041;28;20406;-76
2022/10/09 01:29:03;;;;;;;3.70;2.65;;;;;;;;;;5055483;28;20462;-76
2022/10/09 01:31:32;;;;;;;7.13;3.05;;;;;;;;;;5055295;28;20036;-76
2022/10/09 01:33:59;;;;;;;6.43;2.70;;;;;;;;;;5055198;28;20102;-76
2022/10/09 01:36:28;;;;;;;6.97;3.10;;;;;;;;;;5055081;28;20398;-76
2022/10/09 01:38:56;;;;;;;5.40;3.10;;;;;;;;;;5055079;28;20029;-76
2022/10/09 01:41:22;;;;;;;4.40;2.80;;;;;;;;;;5054999;28;20021;-76
2022/10/09 01:43:47;;;;;;;6.13;3.00;;;;;;;;;;5053662;28;20144;-76
2022/10/09 01:46:30;;;;;;;5.18;2.90;;;;;;;;;;5055249;28;20021;-76
2022/10/09 01:49:16;;;;;;;4.23;2.60;;;;;;;;;;5054951;28;20074;-76
2022/10/09 01:51:58;;;;;;;4.53;2.85;;;;;;;;;;5054822;28;20122;-76
2022/10/09 01:54:34;;;;;;;4.65;2.78;;;;;;;;;;5055405;28;20031;-76
2022/10/09 01:57:02;;;;;;;5.05;2.97;;;;;;;;;;5054820;28;20025;-76
2022/10/09 01:59:29;;;;;;;4.32;3.05;;;;;;;;;;5053412;28;20155;-76
2022/10/09 02:01:57;;;;;;;11.00;3.08;;;;;;;;;;5054490;28;20111;-76
2022/10/09 02:04:23;;;;;;;5.10;3.33;;;;;;;;;;5055097;28;20053;-76
2022/10/09 02:06:49;;;;;;;5.65;3.05;;;;;;;;;;5054762;28;20490;-76
2022/10/09 02:09:16;;;;;;;9.13;3.20;;;;;;;;;;5054810;28;20028;-76
2022/10/09 02:11:47;;;;;;;10.20;3.40;;;;;;;;;;5054375;28;20033;-76
2022/10/09 02:14:12;;;;;;;8.45;3.17;;;;;;;;;;5054686;28;20063;-77
2022/10/09 02:16:40;;;;;;;6.15;3.20;;;;;;;;;;5053094;28;20036;-77
2022/10/09 02:19:12;;;;;;;7.65;3.50;;;;;;;;;;5053023;28;20031;-76
2022/10/09 02:21:42;;;;;;;5.22;3.40;;;;;;;;;;5054578;28;20467;-76
2022/10/09 02:24:13;;;;;;;4.07;2.95;;;;;;;;;;5054185;28;20029;-76
2022/10/09 02:26:38;;;;;;;5.88;3.50;;;;;;;;;;5054489;28;20021;-76
2022/10/09 02:29:04;;;;;;;7.65;3.70;;;;;;;;;;5054328;28;20028;-76
2022/10/09 02:31:32;;;;;;;11.95;5.25;;;;;;;;;;5054028;28;20423;-76
2022/10/09 02:33:59;;;;;;;8.65;4.28;;;;;;;;;;5052788;28;20025;-76
2022/10/09 02:36:25;;;;;;;5.60;3.05;;;;;;;;;;5054006;28;20025;-76
2022/10/09 02:38:51;;;;;;;6.60;3.53;;;;;;;;;;5053976;28;20477;-76
2022/10/09 02:41:16;;;;;;;4.95;3.25;;;;;;;;;;5053946;28;20025;-76
2022/10/09 02:43:42;;;;;;;5.93;3.20;;;;;;;;;;5054064;28;20021;-76
2022/10/09 02:46:07;;;;;;;6.75;3.00;;;;;;;;;;5054139;28;20485;-75
2022/10/09 02:48:32;;;;;;;6.97;2.60;;;;;;;;;;5053822;28;20040;-76
2022/10/09 02:50:59;;;;;;;6.45;3.20;;;;;;;;;;5053750;28;20025;-76
2022/10/09 02:53:24;;;;;;;10.00;4.13;;;;;;;;;;5053769;28;20053;-77
2022/10/09 02:55:49;;;;;;;6.55;3.53;;;;;;;;;;5053665;28;20052;-76
2022/10/09 02:58:14;;;;;;;8.30;3.47;;;;;;;;;;5053349;28;20033;-76
2022/10/09 03:00:40;;;;;;;6.68;3.53;;;;;;;;;;5053153;28;20088;-76
2022/10/09 03:03:05;;;;;;;6.93;3.38;;;;;;;;;;5052436;28;20446;-76
2022/10/09 03:05:30;;;;;;;7.40;3.15;;;;;;;;;;5053460;28;20025;-76
2022/10/09 03:07:56;;;;;;;6.20;3.10;;;;;;;;;;5053422;28;20025;-76
2022/10/09 03:10:21;;;;;;;4.82;3.30;;;;;;;;;;5053357;28;20106;-76
2022/10/09 03:12:46;;;;;;;8.05;3.35;;;;;;;;;;5053472;28;20029;-76
2022/10/09 03:15:13;;;;;;;6.90;3.15;;;;;;;;;;5052099;28;20079;-76
2022/10/09 03:17:39;;;;;;;6.57;3.00;;;;;;;;;;5053317;28;20551;-76
2022/10/09 03:20:05;;;;;;;5.03;2.90;;;;;;;;;;5053339;28;20024;-75
2022/10/09 03:22:30;;;;;;;4.40;2.97;;;;;;;;;;5053286;28;20021;-76
2022/10/09 03:24:55;;;;;;;6.53;2.97;;;;;;;;;;5053128;28;20386;-76
2022/10/09 03:27:21;;;;;;;5.00;3.20;;;;;;;;;;5053249;28;20028;-76
2022/10/09 03:29:46;;;;;;;4.07;2.88;;;;;;;;;;5053752;28;20491;-75
2022/10/09 03:32:11;;;;;;;5.95;2.80;;;;;;;;;;5060169;28;20036;-75
2022/10/09 03:34:37;;;;;;;5.93;3.03;;;;;;;;;;5060519;28;20077;-75
2022/10/09 03:37:02;;;;;;;5.80;2.70;;;;;;;;;;5061603;28;20060;-75
2022/10/09 03:39:27;;;;;;;4.47;3.17;;;;;;;;;;5060756;28;20025;-75
2022/10/09 03:41:53;;;;;;;5.07;2.83;;;;;;;;;;5061706;28;20025;-75
2022/10/09 03:44:18;;;;;;;6.28;2.72;;;;;;;;;;5061830;28;20135;-76
2022/10/09 03:46:43;;;;;;;4.07;2.58;;;;;;;;;;5061708;28;20040;-76
2022/10/09 03:49:08;;;;;;;5.45;3.00;;;;;;;;;;5061034;28;20053;-75
2022/10/09 03:51:34;;;;;;;6.35;2.88;;;;;;;;;;5059577;28;20021;-75
2022/10/09 03:53:59;;;;;;;5.53;2.67;;;;;;;;;;5060712;28;20074;-75
2022/10/09 03:56:24;;;;;;;5.30;2.90;;;;;;;;;;5061167;28;20044;-75
2022/10/09 03:58:49;;;;;;;5.07;2.88;;;;;;;;;;5062681;28;20029;-75
2022/10/09 04:01:15;;;;;;;5.00;2.92;;;;;;;;;;5061399;28;20028;-75
2022/10/09 04:03:40;;;;;;;4.22;2.70;;;;;;;;;;5060441;28;20039;-75
2022/10/09 04:06:05;;;;;;;7.75;2.78;;;;;;;;;;5060365;28;20036;-76
2022/10/09 04:08:30;;;;;;;4.35;2.58;;;;;;;;;;5061972;28;20025;-76
2022/10/09 04:10:59;;;;;;;5.53;2.80;;;;;;;;;;5062036;28;20025;-75
2022/10/09 04:13:25;;;;;;;6.03;2.55;;;;;;;;;;5066385;28;20081;-75
2022/10/09 04:15:51;;;;;;;4.72;2.28;;;;;;;;;;5066019;28;20378;-75
2022/10/09 04:18:17;;;;;;;4.13;2.40;;;;;;;;;;5066086;28;20048;-75
2022/10/09 04:20:50;;;;;;;4.72;2.58;;;;;;;;;;5063902;28;20025;-76
2022/10/09 04:23:17;;;;;;;6.57;2.43;;;;;;;;;;5062022;28;20033;-76
2022/10/09 04:25:42;;;;;;;4.85;2.70;;;;;;;;;;5056521;28;20055;-76
2022/10/09 04:28:07;;;;;;;3.75;2.47;;;;;;;;;;5056493;28;20060;-76
2022/10/09 04:30:32;;;;;;;7.35;2.70;;;;;;;;;;5056327;28;20486;-76
2022/10/09 04:32:58;;;;;;;4.30;2.53;;;;;;;;;;5055128;28;20028;-76
2022/10/09 04:35:23;;;;;;;3.90;2.50;;;;;;;;;;5056302;28;20017;-76
2022/10/09 04:37:48;;;;;;;4.10;2.65;;;;;;;;;;5054962;28;20494;-76
2022/10/09 04:40:13;;;;;;;3.08;2.28;;;;;;;;;;5056162;28;20028;-76
2022/10/09 04:42:39;;;;;;;4.25;2.55;;;;;;;;;;5056127;28;20070;-76
2022/10/09 04:45:05;;;;;;;3.83;2.33;;;;;;;;;;5056034;28;20028;-76
2022/10/09 04:47:30;;;;;;;5.00;2.55;;;;;;;;;;5056101;28;20452;-76
2022/10/09 04:49:56;;;;;;;5.97;2.60;;;;;;;;;;5056373;28;20115;-76
2022/10/09 04:52:21;;;;;;;7.30;2.60;;;;;;;;;;5055913;28;20103;-76
2022/10/09 04:54:46;;;;;;;3.35;2.35;;;;;;;;;;5055950;28;20027;-75
2022/10/09 04:57:12;;;;;;;3.95;2.53;;;;;;;;;;5055907;28;20536;-76
2022/10/09 04:59:37;;;;;;;3.95;2.50;;;;;;;;;;5054418;28;20056;-76
2022/10/09 05:02:02;;;;;;;3.60;2.30;;;;;;;;;;5055649;28;20134;-76
2022/10/09 05:04:28;;;;;;;5.00;2.28;;;;;;;;;;5055681;28;20032;-76
2022/10/09 05:06:53;;;;;;;4.68;2.30;;;;;;;;;;5055585;28;20024;-76
2022/10/09 05:09:18;;;;;;;4.10;2.20;;;;;;;;;;5055647;28;20029;-76
2022/10/09 05:11:43;;;;;;;5.18;2.33;;;;;;;;;;5054239;28;20027;-76
2022/10/09 05:14:09;;;;;;;5.40;2.50;;;;;;;;;;5055764;28;20013;-76
2022/10/09 05:16:34;;;;;;;3.47;2.40;;;;;;;;;;5055764;28;20099;-76
2022/10/09 05:18:59;;;;;;;3.88;2.45;;;;;;;;;;5054107;28;20081;-76
2022/10/09 05:21:26;;;;;;;4.18;2.60;;;;;;;;;;5054994;28;20398;-76
2022/10/09 05:23:53;;;;;;;5.28;2.50;;;;;;;;;;5053928;28;20025;-76
2022/10/09 05:26:20;;;;;;;4.22;2.47;;;;;;;;;;5055389;28;20031;-76
2022/10/09 05:28:46;;;;;;;4.53;2.30;;;;;;;;;;5053992;28;20091;-76
2022/10/09 05:31:21;;;;;;;5.97;2.78;;;;;;;;;;5053946;28;20490;-76
2022/10/09 05:33:47;;;;;;;7.03;3.38;;;;;;;;;;5055266;28;20071;-77
2022/10/09 05:36:12;;;;;;;5.55;3.28;;;;;;;;;;5055253;28;20029;-76
2022/10/09 05:38:37;;;;;;;9.00;3.88;;;;;;;;;;5053856;28;20516;-75
2022/10/09 05:41:04;;;;;;;10.00;4.35;;;;;;;;;;5054992;28;20432;-76
2022/10/09 05:43:32;;;;;;;8.40;4.88;;;;;;;;;;5054928;28;20108;-76
2022/10/09 05:46:08;;;;;;;7.95;3.85;;;;;;;;;;5055018;28;20071;-76
2022/10/09 05:48:34;;;;;;;6.15;3.90;;;;;;;;;;5053640;28;20132;-76
2022/10/09 05:51:26;;;;;;;5.80;3.25;;;;;;;;;;5054824;28;20506;-76
2022/10/09 05:53:52;;;;;;;5.70;3.50;;;;;;;;;;5050226;28;20036;-76
2022/10/09 05:56:22;;;;;;;5.88;4.20;;;;;;;;;;5053522;28;20543;-76
2022/10/09 05:58:58;;;;;;;8.40;3.08;;;;;;;;;;5054993;28;20213;-76
2022/10/09 06:01:25;;;;;;;5.07;2.92;;;;;;;;;;5054648;28;20032;-76
2022/10/09 06:03:53;;;;;;;4.32;2.28;;;;;;;;;;5054574;28;20482;-76
2022/10/09 06:06:21;;;;;;;4.82;2.40;;;;;;;;;;5054800;28;20036;-76
2022/10/09 06:08:46;;;;;;;3.03;2.10;;;;;;;;;;5054550;28;20021;-76
2022/10/09 06:11:14;;;;;;;2.92;2.00;;;;;;;;;;5054774;28;20029;-76
2022/10/09 06:13:41;;;;;;;4.25;1.98;;;;;;;;;;5054727;28;20029;-76
2022/10/09 06:16:07;;;;;;;2.90;1.90;;;;;;;;;;5053355;28;20029;-76
2022/10/09 06:18:32;;;;;;;3.30;1.80;;;;;;;;;;5054557;28;20021;-76
2022/10/09 06:21:00;;;;;;;2.80;1.73;;;;;;;;;;5054542;28;20035;-76
2022/10/09 06:23:26;;;;;;;3.05;1.90;;;;;;;;;;5054488;28;20091;-76
2022/10/09 06:25:56;;;;;;;2.50;1.75;;;;;;;;;;5054360;28;20029;-76
2022/10/09 06:28:21;;;;;;;3.08;1.90;;;;;;;;;;5054415;28;20036;-76
2022/10/09 06:30:48;;;;;;;2.60;2.00;;;;;;;;;;5054281;28;20025;-76
2022/10/09 06:33:13;;;;;;;3.40;1.90;;;;;;;;;;5052483;28;20669;-76
2022/10/09 06:35:38;;;;;;;4.25;2.05;;;;;;;;;;5053813;28;20112;-76
2022/10/09 06:38:04;;;;;;;3.83;2.13;;;;;;;;;;5054000;28;20025;-76
2022/10/09 06:40:29;;;;;;;4.47;1.80;;;;;;;;;;5054008;28;20075;-76
2022/10/09 06:42:54;;;;;;;3.10;2.03;;;;;;;;;;5052677;28;20411;-77
2022/10/09 06:45:19;;;;;;;3.85;1.90;;;;;;;;;;5053795;28;20025;-76
2022/10/09 06:47:45;;;;;;;3.80;2.25;;;;;;;;;;5052507;28;20021;-76
2022/10/09 06:50:10;;;;;;;4.75;2.15;;;;;;;;;;5053763;28;20021;-77
2022/10/09 06:52:35;;;;;;;3.35;1.95;;;;;;;;;;5052453;28;20020;-77
2022/10/09 06:55:00;;;;;;;4.38;1.83;;;;;;;;;;5054108;28;20487;-77
2022/10/09 06:57:26;;;;;;;2.63;2.10;;;;;;;;;;5054201;28;20033;-76
2022/10/09 06:59:51;;;;;;;4.03;2.10;;;;;;;;;;5053530;28;20090;-76
2022/10/09 07:02:17;;;;;;;3.83;2.10;;;;;;;;;;5053397;28;20028;-75
2022/10/09 07:04:42;;;;;;;3.72;1.90;;;;;;;;;;5053405;28;20017;-76
2022/10/09 07:07:08;;;;;;;3.95;1.90;;;;;;;;;;5052421;28;20059;-76
2022/10/09 07:09:33;;;;;;;2.72;1.92;;;;;;;;;;5052212;28;20107;-76
2022/10/09 07:11:58;;;;;;;2.88;2.15;;;;;;;;;;5052107;28;20136;-76
2022/10/09 07:14:23;;;;;;;3.28;1.83;;;;;;;;;;5053536;28;20017;-75
2022/10/09 07:16:50;;;;;;;4.85;2.30;;;;;;;;;;5053447;28;20025;-76
2022/10/09 07:19:17;;;;;;;3.25;2.10;;;;;;;;;;5052093;28;20108;-76
2022/10/09 07:21:44;;;;;;;4.40;2.20;;;;;;;;;;5053235;28;20032;-76
2022/10/09 07:24:10;;;;;;;3.20;2.08;;;;;;;;;;5053176;28;20112;-76
2022/10/09 07:26:38;;;;;;;4.28;2.33;;;;;;;;;;5053410;28;20032;-77
2022/10/09 07:29:05;;;;;;;3.47;2.40;;;;;;;;;;5053260;28;20032;-76
2022/10/09 07:31:31;;;;;;;4.18;2.17;;;;;;;;;;5051924;28;20432;-75
2022/10/09 07:33:56;;;;;;;7.57;2.08;;;;;;;;;;5051770;28;20067;-76
2022/10/09 07:36:22;;;;;;;3.08;2.13;;;;;;;;;;5051959;28;20029;-76
2022/10/09 07:38:49;;;;;;;2.72;2.03;;;;;;;;;;5051938;28;20082;-76
2022/10/09 07:41:15;;;;;;;4.70;1.98;;;;;;;;;;5053463;28;20449;-76
2022/10/09 07:43:42;;;;;;;2.85;1.85;;;;;;;;;;5053447;28;20059;-76
2022/10/09 07:46:12;;;;;;;4.68;2.35;;;;;;;;;;5053532;28;20024;-76
2022/10/09 07:48:37;;;;;;;3.35;2.22;;;;;;;;;;5053134;28;20033;-76
2022/10/09 07:51:24;;;;;;;3.38;2.15;;;;;;;;;;5053020;28;20020;-77
2022/10/09 07:53:50;;;;;;;3.55;2.00;;;;;;;;;;5051859;28;20440;-76
2022/10/09 07:56:18;;;;;;;3.80;2.30;;;;;;;;;;5052981;28;20024;-76
2022/10/09 07:58:51;;;;;;;6.35;2.28;;;;;;;;;;5051790;28;20486;-78
2022/10/09 08:01:17;;;;;;;8.20;2.35;;;;;;;;;;5052930;28;20032;-76
2022/10/09 08:03:42;;;;;;;6.70;2.17;;;;;;;;;;5053198;28;20044;-77
2022/10/09 08:06:07;;;;;;;4.30;2.20;;;;;;;;;;5051770;28;20032;-76
2022/10/09 08:08:33;;;;;;;4.70;2.40;;;;;;;;;;5052921;28;20467;-77
2022/10/09 08:10:58;;;;;;;8.98;2.55;;;;;;;;;;5051533;28;20025;-77
2022/10/09 08:13:24;;;;;;;7.60;2.13;;;;;;;;;;5052940;28;20115;-76
2022/10/09 08:15:50;;;;;;;3.13;2.20;;;;;;;;;;5052709;28;20024;-76
2022/10/09 08:18:15;;;;;;;12.07;3.28;;;;;;;;;;5052629;28;20079;-77
2022/10/09 08:20:40;;;;;;;3.70;2.40;;;;;;;;;;5053350;28;20489;-76
2022/10/09 08:23:06;;;;;;;5.80;2.50;;;;;;;;;;5052865;28;20021;-76
2022/10/09 08:25:35;;;;;;;6.28;2.38;;;;;;;;;;5051550;28;20094;-76
2022/10/09 08:28:01;;;;;;;4.35;2.10;;;;;;;;;;5053025;28;20359;-76
2022/10/09 08:30:26;;;;;;;3.78;2.15;;;;;;;;;;5052560;28;20051;-76
2022/10/09 08:32:52;;;;;;;5.10;1.88;;;;;;;;;;5052810;28;20390;-76
2022/10/09 08:35:17;;;;;;;3.15;1.90;;;;;;;;;;5052800;28;20397;-76
2022/10/09 08:37:43;;;;;;;6.13;2.35;;;;;;;;;;5051575;28;20028;-75
2022/10/09 08:40:16;;;;;;;5.95;2.20;;;;;;;;;;5052387;28;20022;-76
2022/10/09 08:42:58;;;;;;;4.05;1.88;;;;;;;;;;5053166;28;20381;-77
2022/10/09 08:45:24;;;;;;;3.08;1.90;;;;;;;;;;5051430;28;20478;-77
2022/10/09 08:47:55;;;;;;;5.63;2.33;;;;;;;;;;5052699;28;20044;-76
2022/10/09 08:50:27;;;;;;;5.15;1.90;;;;;;;;;;5052330;28;20082;-76
2022/10/09 08:53:17;;;;;;;5.63;2.22;;;;;;;;;;5052545;28;20087;-76
2022/10/09 08:55:54;;;;;;;5.57;2.25;;;;;;;;;;5052762;28;20100;-77
2022/10/09 08:58:20;;;;;;;5.00;2.20;;;;;;;;;;5055541;28;20032;-77
2022/10/09 09:00:53;;;;;;;4.43;2.22;;;;;;;;;;5054687;28;20055;-77
2022/10/09 09:03:28;;;;;;;6.18;2.00;;;;;;;;;;5056209;28;20025;-76
2022/10/09 09:05:53;;;;;;;7.75;1.92;;;;;;;;;;5055880;28;20025;-76
2022/10/09 09:08:30;;;;;;;3.63;1.80;;;;;;;;;;5056074;28;20017;-77
2022/10/09 09:11:10;;;;;;;5.38;2.00;;;;;;;;;;5056205;28;20029;-77
2022/10/09 09:13:47;;;;;;;6.70;1.70;;;;;;;;;;5056037;28;20029;-76
2022/10/09 09:16:31;;;;;;;3.33;1.70;;;;;;;;;;5054399;28;20505;-77
2022/10/09 09:19:24;;;;;;;8.10;2.05;;;;;;;;;;5055974;28;20039;-76
2022/10/09 09:21:51;;;;;;;9.98;1.83;;;;;;;;;;5054336;28;20383;-77
2022/10/09 09:24:24;;;;;;;6.70;1.73;;;;;;;;;;5055393;28;20554;-76
2022/10/09 09:26:55;;;;;;;5.55;1.63;;;;;;;;;;5054399;28;20028;-76
2022/10/09 09:29:25;;;;;;;8.15;1.75;;;;;;;;;;5054118;28;20039;-76
2022/10/09 09:31:56;;;;;;;5.13;1.50;;;;;;;;;;5055174;28;20028;-76
2022/10/09 09:34:37;;;;;;;4.57;1.70;;;;;;;;;;5055223;28;20033;-77
2022/10/09 09:37:02;;;;;;;4.75;1.48;;;;;;;;;;5053884;28;20025;-76
2022/10/09 09:39:30;;;;;;;5.50;1.67;;;;;;;;;;5055663;28;20039;-76
2022/10/09 09:42:19;;;;;;;6.65;1.58;;;;;;;;;;5055747;28;20033;-77
2022/10/09 09:45:05;;;;;;;6.20;1.60;;;;;;;;;;5053188;28;20041;-75
2022/10/09 09:47:39;;;;;;;4.03;1.60;;;;;;;;;;5054931;28;20021;-76
2022/10/09 09:50:05;;;;;;;8.55;1.73;;;;;;;;;;5054770;28;20028;-74
2022/10/09 09:52:38;;;;;;;5.90;1.40;;;;;;;;;;5054783;28;20057;-77
2022/10/09 09:55:04;;;;;;;5.15;1.42;;;;;;;;;;5053615;28;20116;-76
2022/10/09 09:57:33;;;;;;;7.80;1.40;;;;;;;;;;5053523;28;20021;-77
2022/10/09 10:00:26;;;;;;;4.80;1.10;;;;;;;;;;5054594;28;20112;-77
2022/10/09 10:03:22;;;;;;;4.05;1.20;;;;;;;;;;5054609;28;20406;-77
2022/10/09 10:05:47;;;;;;;5.65;1.65;;;;;;;;;;5054216;28;20091;-77
2022/10/09 10:08:25;;;;;;;2.95;1.10;;;;;;;;;;5054457;28;20421;-76
2022/10/09 10:10:53;;;;;;;7.95;1.35;;;;;;;;;;5053305;28;20025;-77
2022/10/09 10:13:22;;;;;;;4.22;1.30;;;;;;;;;;5054823;28;20386;-76
2022/10/09 10:15:51;;;;;;;6.07;1.10;;;;;;;;;;5054560;28;20091;-77
2022/10/09 10:18:18;;;;;;;5.47;1.10;;;;;;;;;;5054492;28;20017;-77
2022/10/09 10:20:47;;;;;;;6.25;1.00;;;;;;;;;;5054452;28;20048;-77
2022/10/09 10:23:35;;;;;;;8.45;1.40;;;;;;;;;;5054633;28;20029;-76
2022/10/09 10:26:06;;;;;;;2.92;1.20;;;;;;;;;;5054578;28;20470;-77
2022/10/09 10:28:40;;;;;;;5.97;0.80;;;;;;;;;;5054206;28;20082;-76
2022/10/09 10:31:14;;;;;;;6.05;1.10;;;;;;;;;;5053012;28;20112;-76
2022/10/09 10:33:43;;;;;;;3.40;0.80;;;;;;;;;;5054563;28;20386;-76
2022/10/09 10:36:09;;;;;;;5.13;0.73;;;;;;;;;;5054160;28;20056;-76
2022/10/09 10:38:43;;;;;;;2.70;0.60;;;;;;;;;;5054281;28;20055;-77
2022/10/09 10:41:20;;;;;;;2.65;0.90;;;;;;;;;;5054152;28;20029;-76
2022/10/09 10:44:06;;;;;;;7.28;0.90;;;;;;;;;;5052725;28;20056;-76
2022/10/09 10:46:48;;;;;;;8.25;0.90;;;;;;;;;;5054392;28;20493;-77
2022/10/09 10:49:19;;;;;;;3.67;0.80;;;;;;;;;;5053918;28;20483;-77
2022/10/09 10:52:07;;;;;;;7.70;0.90;;;;;;;;;;5052596;28;20052;-76
2022/10/09 10:54:53;;;;;;;6.97;0.77;;;;;;;;;;5053767;28;20029;-76
2022/10/09 10:57:33;;;;;;;4.47;0.80;;;;;;;;;;5053688;28;20490;-77
2022/10/09 11:00:06;;;;;;;4.30;1.10;;;;;;;;;;5053583;28;20041;-76
2022/10/09 11:02:46;;;;;;;2.30;0.85;;;;;;;;;;5053445;28;20037;-76
2022/10/09 11:05:29;;;;;;;4.50;0.93;;;;;;;;;;5052418;28;20029;-77
2022/10/09 11:08:24;;;;;;;7.93;1.10;;;;;;;;;;5053973;28;20490;-77
2022/10/09 11:11:11;;;;;;;7.75;0.80;;;;;;;;;;5053602;28;20509;-76
2022/10/09 11:13:50;;;;;;;4.18;0.80;;;;;;;;;;5053840;28;20079;-77
2022/10/09 11:16:31;;;;;;;5.22;0.70;;;;;;;;;;5053657;28;20036;-75
2022/10/09 11:18:56;;;;;;;3.33;0.77;;;;;;;;;;5054131;28;20029;-76
2022/10/09 11:21:43;;;;;;;2.33;0.60;;;;;;;;;;5051765;28;20483;-76
2022/10/09 11:24:17;;;;;;;3.17;0.77;;;;;;;;;;5051962;28;20285;-76
2022/10/09 11:26:57;;;;;;;2.38;0.70;;;;;;;;;;5053395;28;20055;-77
2022/10/09 11:29:31;;;;;;;1.63;0.50;;;;;;;;;;5053496;28;20025;-77
2022/10/09 11:32:05;;;;;;;;;;;;;;;;;;5052310;28;20068;-75
2022/10/09 11:34:42;;;;;;;4.70;1.00;;;;;;;;;;5051847;28;20298;-76
2022/10/09 11:37:16;;;;;;;3.13;0.80;;;;;;;;;;5051843;28;20021;-76
2022/10/09 11:39:42;;;;;;;5.28;0.82;;;;;;;;;;5052143;28;20025;-76
2022/10/09 11:42:10;;;;;;;3.33;0.75;;;;;;;;;;5052992;28;20033;-76
2022/10/09 11:44:52;;;;;;;4.63;0.75;;;;;;;;;;5052808;28;20032;-76
2022/10/09 11:47:26;;;;;;;4.78;0.90;;;;;;;;;;5052903;28;20056;-77
2022/10/09 11:49:59;;;;;;;;;;;;;;;;;;5053385;28;20351;-77
2022/10/09 11:52:44;;;;;;;1.95;0.57;;;;;;;;;;5051570;28;19916;-76
2022/10/09 11:55:22;;;;;;;2.25;0.65;;;;;;;;;;5051601;28;20474;-76
2022/10/09 11:57:47;;;;;;;4.70;0.95;;;;;;;;;;5052922;28;20029;-78
2022/10/09 12:00:14;;;;;;;3.40;0.70;;;;;;;;;;5052722;28;20025;-76
2022/10/09 12:02:40;;;;;;;3.08;0.70;;;;;;;;;;5053271;28;20028;-76
2022/10/09 12:05:18;;;;;;;2.95;0.68;;;;;;;;;;5052806;28;20450;-76
2022/10/09 12:07:44;;;;;;;2.88;0.68;;;;;;;;;;5052823;28;20478;-77
2022/10/09 12:10:24;;;;;;;3.25;0.88;;;;;;;;;;5052953;28;20035;-76
2022/10/09 12:12:59;;;;;;;2.88;0.68;;;;;;;;;;5052675;28;20070;-77
2022/10/09 12:15:35;;;;;;;4.05;0.70;;;;;;;;;;5052695;28;20043;-76
2022/10/09 12:18:14;;;;;;;6.10;0.68;;;;;;;;;;5051564;28;20086;-76
2022/10/09 12:20:44;;;;;;;1.73;0.50;;;;;;;;;;5051430;28;20021;-76
2022/10/09 12:23:10;;;;;;;2.10;0.63;;;;;;;;;;5051429;28;20083;-77
2022/10/09 12:25:44;;;;;;;3.05;0.52;;;;;;;;;;5052611;28;20025;-77
2022/10/09 12:28:37;;;;;;;2.88;0.60;;;;;;;;;;5051522;28;20033;-77
2022/10/09 12:31:13;;;;;;;2.40;0.60;;;;;;;;;;5051796;28;20040;-77
2022/10/09 12:33:46;;;;;;;2.05;0.90;;;;;;;;;;5054699;28;20115;-77
2022/10/09 12:36:14;;;;;;;4.50;1.00;;;;;;;;;;5056658;28;20064;-75
2022/10/09 12:38:40;;;;;;;4.75;0.68;;;;;;;;;;5055007;28;20078;-76
2022/10/09 12:41:13;;;;;;;5.72;0.73;;;;;;;;;;5056250;28;20029;-75
2022/10/09 12:43:45;;;;;;;3.05;0.70;;;;;;;;;;5056219;28;20036;-76
2022/10/09 12:46:11;;;;;;;2.75;0.77;;;;;;;;;;5056154;28;20029;-77
2022/10/09 12:48:39;;;;;;;6.88;1.20;;;;;;;;;;5056253;28;20146;-77
2022/10/09 12:51:22;;;;;;;2.00;0.75;;;;;;;;;;5056492;28;20528;-76
2022/10/09 12:53:50;;;;;;;2.22;0.57;;;;;;;;;;5056263;28;20051;-77
2022/10/09 12:56:31;;;;;;;4.00;0.68;;;;;;;;;;5055892;28;20044;-76
2022/10/09 12:58:59;;;;;;;3.58;0.70;;;;;;;;;;5055894;28;20025;-76
2022/10/09 13:01:25;;;;;;;3.03;0.68;;;;;;;;;;5055806;28;20037;-77
2022/10/09 13:03:56;;;;;;;6.10;0.90;;;;;;;;;;5054387;28;20036;-77
2022/10/09 13:06:29;;;;;;;4.60;0.80;;;;;;;;;;5054761;28;20397;-76
2022/10/09 13:09:01;;;;;;;3.60;1.00;;;;;;;;;;5055942;28;20021;-76
2022/10/09 13:11:42;;;;;;;2.53;0.80;;;;;;;;;;5055563;28;20033;-77
2022/10/09 13:14:24;;;;;;;3.17;0.77;;;;;;;;;;5054322;28;20033;-76
2022/10/09 13:16:49;;;;;;;2.88;0.73;;;;;;;;;;5055797;28;20118;-76
2022/10/09 13:19:30;;;;;;;2.97;0.90;;;;;;;;;;5054264;28;20048;-76
2022/10/09 13:22:27;;;;;;;3.97;1.27;;;;;;;;;;5055541;28;20039;-76
2022/10/09 13:24:55;;;;;;;2.00;0.70;;;;;;;;;;5056355;28;20104;-76
2022/10/09 13:27:33;;;;;;;4.80;0.80;;;;;;;;;;5055541;28;20036;-76
2022/10/09 13:30:00;;;;;;;2.25;0.80;;;;;;;;;;5055226;28;20070;-76
2022/10/09 13:32:26;;;;;;;1.73;0.70;;;;;;;;;;5055181;28;20083;-77
2022/10/09 13:34:53;;;;;;;2.03;0.60;;;;;;;;;;5055219;28;20458;-77
2022/10/09 13:37:22;;;;;;;2.42;0.65;;;;;;;;;;5055197;28;20040;-77
2022/10/09 13:39:51;;;;;;;2.08;0.70;;;;;;;;;;5055115;28;20421;-75
2022/10/09 13:42:16;;;;;;;6.35;0.70;;;;;;;;;;5054898;28;20025;-75
2022/10/09 13:44:42;;;;;;;2.40;0.93;;;;;;;;;;5054900;28;20021;-76
2022/10/09 13:47:08;;;;;;;2.88;0.65;;;;;;;;;;5055023;28;20020;-76
2022/10/09 13:49:33;;;;;;;5.13;0.80;;;;;;;;;;5055215;28;20069;-76
2022/10/09 13:51:58;;;;;;;5.97;0.95;;;;;;;;;;5055151;28;20165;-75
2022/10/09 13:54:24;;;;;;;3.47;0.80;;;;;;;;;;5054902;28;20379;-76
2022/10/09 13:56:49;;;;;;;1.42;0.60;;;;;;;;;;5054892;28;20422;-77
2022/10/09 13:59:15;;;;;;;2.83;0.73;;;;;;;;;;5054830;28;20029;-77
2022/10/09 14:01:40;;;;;;;3.03;0.73;;;;;;;;;;5054644;28;20459;-76
2022/10/09 14:04:05;;;;;;;2.20;0.60;;;;;;;;;;5054638;28;20021;-76
2022/10/09 14:06:34;;;;;;;1.58;0.70;;;;;;;;;;5054676;28;20059;-76
2022/10/09 14:08:59;;;;;;;2.85;0.70;;;;;;;;;;5054569;28;20452;-76
2022/10/09 14:11:24;;;;;;;2.00;0.65;;;;;;;;;;5054752;28;20025;-77
2022/10/09 14:13:50;;;;;;;1.95;0.65;;;;;;;;;;5054512;28;20025;-76
2022/10/09 14:16:15;;;;;;;3.88;0.90;;;;;;;;;;5054445;28;20470;-76
2022/10/09 14:18:40;;;;;;;4.00;0.85;;;;;;;;;;5054352;28;20032;-76
2022/10/09 14:21:13;;;;;;;1.50;0.70;;;;;;;;;;5054263;28;20021;-76
2022/10/09 14:23:38;;;;;;;3.63;1.00;;;;;;;;;;5054204;28;20589;-75
2022/10/09 14:26:05;;;;;;;3.03;0.93;;;;;;;;;;5053510;28;20074;-77
2022/10/09 14:28:30;;;;;;;1.92;0.73;;;;;;;;;;5052954;28;20414;-74
2022/10/09 14:30:56;;;;;;;2.92;0.80;;;;;;;;;;5054162;28;20028;-77
2022/10/09 14:33:21;;;;;;;2.70;0.70;;;;;;;;;;5054158;28;20063;-77
2022/10/09 14:35:46;;;;;;;4.57;1.20;;;;;;;;;;5054062;28;20043;-76
2022/10/09 14:38:12;;;;;;;5.22;1.13;;;;;;;;;;5054029;28;20086;-77
2022/10/09 14:40:42;;;;;;;3.85;1.00;;;;;;;;;;5053961;28;20029;-76
2022/10/09 14:43:07;;;;;;;2.95;1.02;;;;;;;;;;5054138;28;20016;-76
2022/10/09 14:45:32;;;;;;;2.70;0.90;;;;;;;;;;5052812;28;20029;-76
2022/10/09 14:47:58;;;;;;;2.65;0.90;;;;;;;;;;5053812;28;20502;-76
2022/10/09 14:50:23;;;;;;;4.00;0.75;;;;;;;;;;5053769;28;20470;-76
2022/10/09 14:52:48;;;;;;;2.05;0.80;;;;;;;;;;5053875;28;20036;-75
2022/10/09 14:55:13;;;;;;;4.10;1.10;;;;;;;;;;5052918;28;20381;-75
2022/10/09 14:57:39;;;;;;;3.65;0.80;;;;;;;;;;5052273;28;20024;-76